sensor_id;sensor_type;location;lat;lon;timestamp;pressure;altitude;pressure_sealevel;temperature;humidity
15419;BME280;7808;43.712;23.098;2024-03-02T12:55:11;100487.09;;;10.11;100.00
15419;BME280;7808;43.712;23.098;2024-03-02T12:57:37;100482.78;;;10.10;100.00
15419;BME280;7808;43.712;23.098;2024-03-02T13:00:06;100488.22;;;10.10;100.00
15419;BME280;7808;43.712;23.098;2024-03-02T13:02:34;100493.00;;;10.13;100.00
15419;BME280;7808;43.712;23.098;2024-03-02T13:05:01;100495.84;;;10.08;100.00
15419;BME280;7808;43.712;23.098;2024-03-02T13:07:28;100494.41;;;10.02;100.00
15419;BME280;7808;43.712;23.098;2024-03-02T13:09:55;100493.28;;;10.03;100.00
15419;BME280;7808;43.712;23.098;2024-03-02T13:12:24;100487.84;;;9.85;100.00
15419;BME280;7808;43.712;23.098;2024-03-02T13:14:51;100494.06;;;9.86;100.00
15419;BME280;7808;43.712;23.098;2024-03-02T13:17:18;100489.63;;;9.90;100.00
15419;BME280;7808;43.712;23.098;2024-03-02T13:19:51;100493.47;;;9.98;100.00
15419;BME280;7808;43.712;23.098;2024-03-02T13:22:19;100503.78;;;9.96;100.00
15419;BME280;7808;43.712;23.098;2024-03-02T13:24:45;100491.69;;;9.84;100.00
15419;BME280;7808;43.712;23.098;2024-03-02T13:27:12;100494.53;;;9.88;100.00
15419;BME280;7808;43.712;23.098;2024-03-02T13:29:40;100503.00;;;9.78;100.00
15419;BME280;7808;43.712;23.098;2024-03-02T13:32:07;100499.63;;;9.72;100.00
15419;BME280;7808;43.712;23.098;2024-03-02T13:34:34;100503.72;;;9.61;100.00
15419;BME280;7808;43.712;23.098;2024-03-02T13:37:01;100506.59;;;9.56;100.00
15419;BME280;7808;43.712;23.098;2024-03-02T13:39:27;100505.00;;;9.55;100.00
15419;BME280;7808;43.712;23.098;2024-03-02T13:41:56;100497.03;;;9.50;100.00
15419;BME280;7808;43.712;23.098;2024-03-02T13:44:29;100506.44;;;9.53;100.00
15419;BME280;7808;43.712;23.098;2024-03-02T13:46:57;100500.81;;;9.41;100.00
15419;BME280;7808;43.712;23.098;2024-03-02T13:49:23;100507.38;;;9.48;100.00
15419;BME280;7808;43.712;23.098;2024-03-02T13:51:53;100504.66;;;9.48;100.00
15419;BME280;7808;43.712;23.098;2024-03-02T13:54:20;100503.41;;;9.54;100.00
15419;BME280;7808;43.712;23.098;2024-03-02T13:56:47;100503.25;;;9.51;100.00
15419;BME280;7808;43.712;23.098;2024-03-02T13:59:13;100504.00;;;9.51;100.00
15419;BME280;7808;43.712;23.098;2024-03-02T14:01:40;100512.13;;;9.51;100.00
15419;BME280;7808;43.712;23.098;2024-03-02T14:04:08;100504.53;;;9.53;100.00
15419;BME280;7808;43.712;23.098;2024-03-02T14:06:34;100507.56;;;9.60;100.00
15419;BME280;7808;43.712;23.098;2024-03-02T14:09:01;100505.19;;;9.67;100.00
15419;BME280;7808;43.712;23.098;2024-03-02T14:11:27;100500.59;;;9.76;100.00
15419;BME280;7808;43.712;23.098;2024-03-02T14:13:54;100513.63;;;9.74;100.00
15419;BME280;7808;43.712;23.098;2024-03-02T14:16:22;100504.56;;;9.70;100.00
15419;BME280;7808;43.712;23.098;2024-03-02T14:18:48;100514.13;;;9.76;100.00
15419;BME280;7808;43.712;23.098;2024-03-02T14:21:16;100508.22;;;9.74;100.00
15419;BME280;7808;43.712;23.098;2024-03-02T14:23:43;100510.94;;;9.74;100.00
15419;BME280;7808;43.712;23.098;2024-03-02T14:26:09;100517.63;;;9.77;100.00
15419;BME280;7808;43.712;23.098;2024-03-02T14:28:36;100509.66;;;9.72;100.00
15419;BME280;7808;43.712;23.098;2024-03-02T14:31:02;100518.72;;;9.67;100.00
15419;BME280;7808;43.712;23.098;2024-03-02T14:33:29;100504.72;;;9.65;100.00
15419;BME280;7808;43.712;23.098;2024-03-02T14:35:56;100513.13;;;9.64;100.00
15419;BME280;7808;43.712;23.098;2024-03-02T14:38:24;100514.88;;;9.68;100.00
15419;BME280;7808;43.712;23.098;2024-03-02T14:40:50;100499.63;;;9.72;100.00
15419;BME280;7808;43.712;23.098;2024-03-02T14:43:17;100512.69;;;9.70;100.00
15419;BME280;7808;43.712;23.098;2024-03-02T14:45:43;100501.56;;;9.80;100.00
15419;BME280;7808;43.712;23.098;2024-03-02T14:48:10;100513.63;;;9.74;100.00
15419;BME280;7808;43.712;23.098;2024-03-02T14:50:36;100509.19;;;9.78;100.00
15419;BME280;7808;43.712;23.098;2024-03-02T14:53:03;100503.00;;;9.78;100.00
15419;BME280;7808;43.712;23.098;2024-03-02T14:55:33;100506.78;;;9.77;100.00
15419;BME280;7808;43.712;23.098;2024-03-02T14:58:00;100507.59;;;9.77;100.00
15419;BME280;7808;43.712;23.098;2024-03-02T15:00:26;100508.84;;;9.71;100.00
15419;BME280;7808;43.712;23.098;2024-03-02T15:02:53;100510.91;;;9.66;100.00
15419;BME280;7808;43.712;23.098;2024-03-02T15:05:19;100517.13;;;9.66;100.00
15419;BME280;7808;43.712;23.098;2024-03-02T15:07:46;100513.31;;;9.67;100.00
15419;BME280;7808;43.712;23.098;2024-03-02T15:10:12;100518.56;;;9.72;100.00
15419;BME280;7808;43.712;23.098;2024-03-02T15:12:40;100526.22;;;9.79;100.00
15419;BME280;7808;43.712;23.098;2024-03-02T15:15:07;100524.00;;;9.81;100.00
15419;BME280;7808;43.712;23.098;2024-03-02T15:17:35;100530.22;;;9.81;100.00
15419;BME280;7808;43.712;23.098;2024-03-02T15:20:02;100528.63;;;9.80;100.00
15419;BME280;7808;43.712;23.098;2024-03-02T15:22:32;100533.69;;;9.73;100.00
15419;BME280;7808;43.712;23.098;2024-03-02T15:24:59;100529.53;;;9.67;100.00
15419;BME280;7808;43.712;23.098;2024-03-02T15:27:26;100530.66;;;9.66;100.00
15419;BME280;7808;43.712;23.098;2024-03-02T15:29:54;100537.47;;;9.64;100.00
15419;BME280;7808;43.712;23.098;2024-03-02T15:32:22;100546.25;;;9.61;100.00
15419;BME280;7808;43.712;23.098;2024-03-02T15:34:50;100534.91;;;9.50;100.00
15419;BME280;7808;43.712;23.098;2024-03-02T15:37:16;100545.88;;;9.54;100.00
15419;BME280;7808;43.712;23.098;2024-03-02T15:39:43;100540.47;;;9.54;100.00
15419;BME280;7808;43.712;23.098;2024-03-02T15:42:10;100537.75;;;9.45;100.00
15419;BME280;7808;43.712;23.098;2024-03-02T15:44:37;100546.63;;;9.37;100.00
15419;BME280;7808;43.712;23.098;2024-03-02T15:47:05;100537.69;;;9.37;100.00
15419;BME280;7808;43.712;23.098;2024-03-02T15:49:32;100540.38;;;9.28;100.00
15419;BME280;7808;43.712;23.098;2024-03-02T15:51:59;100535.78;;;9.29;100.00
15419;BME280;7808;43.712;23.098;2024-03-02T15:57:30;100543.97;;;9.15;100.00
15419;BME280;7808;43.712;23.098;2024-03-02T15:59:56;100547.16;;;9.17;100.00
15419;BME280;7808;43.712;23.098;2024-03-02T16:02:24;100548.53;;;9.06;100.00
15419;BME280;7808;43.712;23.098;2024-03-02T16:04:51;100543.63;;;9.08;100.00
15419;BME280;7808;43.712;23.098;2024-03-02T16:07:17;100544.88;;;9.02;100.00
15419;BME280;7808;43.712;23.098;2024-03-02T16:09:44;100546.94;;;9.05;100.00
15419;BME280;7808;43.712;23.098;2024-03-02T16:12:10;100555.19;;;9.00;100.00
15419;BME280;7808;43.712;23.098;2024-03-02T16:14:37;100541.50;;;8.96;100.00
15419;BME280;7808;43.712;23.098;2024-03-02T16:17:04;100545.50;;;8.99;100.00
15419;BME280;7808;43.712;23.098;2024-03-02T16:19:32;100549.94;;;8.95;100.00
15419;BME280;7808;43.712;23.098;2024-03-02T16:21:58;100546.09;;;8.96;100.00
15419;BME280;7808;43.712;23.098;2024-03-02T16:24:25;100543.09;;;8.97;100.00
15419;BME280;7808;43.712;23.098;2024-03-02T16:26:51;100541.19;;;8.98;100.00
15419;BME280;7808;43.712;23.098;2024-03-02T16:29:18;100538.47;;;8.98;100.00
15419;BME280;7808;43.712;23.098;2024-03-02T16:31:44;100541.50;;;8.96;100.00
15419;BME280;7808;43.712;23.098;2024-03-02T16:34:11;100538.00;;;8.96;100.00
15419;BME280;7808;43.712;23.098;2024-03-02T16:36:39;100534.47;;;8.95;100.00
15419;BME280;7808;43.712;23.098;2024-03-02T16:39:07;100536.91;;;8.97;100.00
15419;BME280;7808;43.712;23.098;2024-03-02T16:41:36;100536.72;;;8.93;100.00
15419;BME280;7808;43.712;23.098;2024-03-02T16:44:05;100544.53;;;8.95;100.00
15419;BME280;7808;43.712;23.098;2024-03-02T16:46:32;100540.22;;;8.94;100.00
15419;BME280;7808;43.712;23.098;2024-03-02T16:48:58;100547.03;;;8.91;100.00
15419;BME280;7808;43.712;23.098;2024-03-02T16:51:25;100554.34;;;8.91;100.00
15419;BME280;7808;43.712;23.098;2024-03-02T16:53:53;100552.75;;;8.90;100.00
15419;BME280;7808;43.712;23.098;2024-03-02T16:56:19;100550.53;;;8.92;100.00
15419;BME280;7808;43.712;23.098;2024-03-02T16:58:46;100551.16;;;8.89;100.00
15419;BME280;7808;43.712;23.098;2024-03-02T17:01:12;100558.66;;;8.92;100.00
15419;BME280;7808;43.712;23.098;2024-03-02T17:03:39;100551.47;;;8.87;100.00
15419;BME280;7808;43.712;23.098;2024-03-02T17:06:05;100553.97;;;8.84;100.00
15419;BME280;7808;43.712;23.098;2024-03-02T17:08:32;100549.81;;;8.78;100.00
15419;BME280;7808;43.712;23.098;2024-03-02T17:11:01;100552.69;;;8.81;100.00
15419;BME280;7808;43.712;23.098;2024-03-02T17:13:29;100563.50;;;8.81;100.00
15419;BME280;7808;43.712;23.098;2024-03-02T17:15:55;100571.28;;;8.83;100.00
15419;BME280;7808;43.712;23.098;2024-03-02T17:18:21;100569.22;;;8.80;100.00
15419;BME280;7808;43.712;23.098;2024-03-02T17:20:48;100570.81;;;8.81;100.00
15419;BME280;7808;43.712;23.098;2024-03-02T17:23:14;100577.22;;;8.85;100.00
15419;BME280;7808;43.712;23.098;2024-03-02T17:25:41;100582.50;;;8.90;100.00
15419;BME280;7808;43.712;23.098;2024-03-02T17:28:19;100579.91;;;8.85;100.00
15419;BME280;7808;43.712;23.098;2024-03-02T17:30:45;100579.91;;;8.85;100.00
15419;BME280;7808;43.712;23.098;2024-03-02T17:33:12;100575.59;;;8.84;100.00
15419;BME280;7808;43.712;23.098;2024-03-02T17:35:38;100579.41;;;8.83;100.00
15419;BME280;7808;43.712;23.098;2024-03-02T17:38:05;100577.97;;;8.85;100.00
15419;BME280;7808;43.712;23.098;2024-03-02T17:40:31;100580.19;;;8.83;100.00
15419;BME280;7808;43.712;23.098;2024-03-02T17:42:58;100583.22;;;8.82;100.00
15419;BME280;7808;43.712;23.098;2024-03-02T17:45:26;100583.03;;;8.78;100.00
15419;BME280;7808;43.712;23.098;2024-03-02T17:47:52;100587.66;;;8.78;100.00
15419;BME280;7808;43.712;23.098;2024-03-02T17:50:19;100584.44;;;8.76;100.00
15419;BME280;7808;43.712;23.098;2024-03-02T17:52:45;100580.16;;;8.75;100.00
15419;BME280;7808;43.712;23.098;2024-03-02T17:55:13;100582.72;;;8.80;100.00
15419;BME280;7808;43.712;23.098;2024-03-02T17:57:39;100578.91;;;8.81;100.00
15419;BME280;7808;43.712;23.098;2024-03-02T18:00:06;100588.13;;;8.80;100.00
15419;BME280;7808;43.712;23.098;2024-03-02T18:02:40;100588.53;;;9.48;100.00
15419;BME280;7808;43.712;23.098;2024-03-02T18:05:07;100587.97;;;9.29;100.00
15419;BME280;7808;43.712;23.098;2024-03-02T18:07:34;100589.66;;;9.16;100.00
15419;BME280;7808;43.712;23.098;2024-03-02T18:10:01;100594.88;;;9.13;100.00
15419;BME280;7808;43.712;23.098;2024-03-02T18:12:28;100600.41;;;9.08;100.00
15419;BME280;7808;43.712;23.098;2024-03-02T18:14:55;100590.50;;;9.03;100.00
15419;BME280;7808;43.712;23.098;2024-03-02T18:17:21;100598.59;;;8.95;100.00
15419;BME280;7808;43.712;23.098;2024-03-02T18:19:50;100590.59;;;8.90;100.00
15419;BME280;7808;43.712;23.098;2024-03-02T18:22:17;100592.41;;;8.81;100.00
15419;BME280;7808;43.712;23.098;2024-03-02T18:24:44;100599.25;;;8.78;100.00
15419;BME280;7808;43.712;23.098;2024-03-02T18:27:10;100597.66;;;8.77;100.00
15419;BME280;7808;43.712;23.098;2024-03-02T18:29:37;100601.78;;;8.75;100.00
15419;BME280;7808;43.712;23.098;2024-03-02T18:32:04;100602.88;;;8.74;100.00
15419;BME280;7808;43.712;23.098;2024-03-02T18:34:31;100604.47;;;8.75;100.00
15419;BME280;7808;43.712;23.098;2024-03-02T18:36:58;100607.22;;;8.83;100.00
15419;BME280;7808;43.712;23.098;2024-03-02T18:39:25;100605.94;;;8.81;100.00
15419;BME280;7808;43.712;23.098;2024-03-02T18:41:52;100612.81;;;8.87;100.00
15419;BME280;7808;43.712;23.098;2024-03-02T18:44:18;100605.31;;;8.84;100.00
15419;BME280;7808;43.712;23.098;2024-03-02T18:46:45;100605.81;;;8.86;100.00
15419;BME280;7808;43.712;23.098;2024-03-02T18:49:11;100609.00;;;8.88;100.00
15419;BME280;7808;43.712;23.098;2024-03-02T18:51:38;100607.78;;;8.94;100.00
15419;BME280;7808;43.712;23.098;2024-03-02T18:54:08;100613.81;;;8.91;100.00
15419;BME280;7808;43.712;23.098;2024-03-02T18:56:36;100617.91;;;8.88;100.00
15419;BME280;7808;43.712;23.098;2024-03-02T18:59:04;100623.03;;;8.90;100.00
15419;BME280;7808;43.712;23.098;2024-03-02T19:01:30;100619.81;;;8.88;100.00
15419;BME280;7808;43.712;23.098;2024-03-02T19:03:57;100614.41;;;8.88;100.00
15419;BME280;7808;43.712;23.098;2024-03-02T19:06:23;100618.03;;;8.83;100.00
15419;BME280;7808;43.712;23.098;2024-03-02T19:08:50;100614.03;;;8.81;100.00
15419;BME280;7808;43.712;23.098;2024-03-02T19:11:18;100616.25;;;8.79;100.00
15419;BME280;7808;43.712;23.098;2024-03-02T19:13:45;100620.84;;;8.78;100.00
15419;BME280;7808;43.712;23.098;2024-03-02T19:16:12;100624.97;;;8.76;100.00
15419;BME280;7808;43.712;23.098;2024-03-02T19:18:38;100619.56;;;8.76;100.00
15419;BME280;7808;43.712;23.098;2024-03-02T19:21:06;100622.25;;;8.76;100.00
15419;BME280;7808;43.712;23.098;2024-03-02T19:23:32;100626.09;;;8.75;100.00
15419;BME280;7808;43.712;23.098;2024-03-02T19:25:59;100622.69;;;8.69;100.00
15419;BME280;7808;43.712;23.098;2024-03-02T19:28:27;100617.09;;;8.66;100.00
15419;BME280;7808;43.712;23.098;2024-03-02T19:30:53;100622.81;;;8.64;100.00
15419;BME280;7808;43.712;23.098;2024-03-02T19:33:20;100623.13;;;8.63;100.00
15419;BME280;7808;43.712;23.098;2024-03-02T19:35:46;100615.16;;;8.57;100.00
15419;BME280;7808;43.712;23.098;2024-03-02T19:38:13;100624.34;;;8.56;100.00
15419;BME280;7808;43.712;23.098;2024-03-02T19:40:40;100617.16;;;8.52;100.00
15419;BME280;7808;43.712;23.098;2024-03-02T19:43:06;100621.16;;;8.54;100.00
15419;BME280;7808;43.712;23.098;2024-03-02T19:45:34;100621.34;;;8.58;100.00
15419;BME280;7808;43.712;23.098;2024-03-02T19:48:01;100618.94;;;8.56;100.00
15419;BME280;7808;43.712;23.098;2024-03-02T19:50:27;100619.94;;;8.61;100.00
15419;BME280;7808;43.712;23.098;2024-03-02T19:52:54;100625.03;;;8.62;100.00
15419;BME280;7808;43.712;23.098;2024-03-02T19:55:20;100625.53;;;8.64;100.00
15419;BME280;7808;43.712;23.098;2024-03-02T19:57:54;100628.41;;;8.68;100.00
15419;BME280;7808;43.712;23.098;2024-03-02T20:00:20;100627.91;;;8.66;100.00
15419;BME280;7808;43.712;23.098;2024-03-02T20:02:48;100620.91;;;8.65;100.00
15419;BME280;7808;43.712;23.098;2024-03-02T20:05:15;100628.22;;;8.64;100.00
15419;BME280;7808;43.712;23.098;2024-03-02T20:07:42;100630.59;;;8.66;100.00
15419;BME280;7808;43.712;23.098;2024-03-02T20:10:08;100633.31;;;8.66;100.00
15419;BME280;7808;43.712;23.098;2024-03-02T20:12:35;100619.19;;;8.69;100.00
15419;BME280;7808;43.712;23.098;2024-03-02T20:15:02;100622.22;;;8.67;100.00
15419;BME280;7808;43.712;23.098;2024-03-02T20:17:29;100623.25;;;8.57;100.00
15419;BME280;7808;43.712;23.098;2024-03-02T20:19:58;100618.06;;;8.47;100.00
15419;BME280;7808;43.712;23.098;2024-03-02T20:22:24;100621.72;;;8.65;100.00
15419;BME280;7808;43.712;23.098;2024-03-02T20:24:51;100618.28;;;8.73;100.00
15419;BME280;7808;43.712;23.098;2024-03-02T20:27:17;100620.69;;;8.75;100.00
15419;BME280;7808;43.712;23.098;2024-03-02T20:29:45;100612.25;;;8.76;100.00
15419;BME280;7808;43.712;23.098;2024-03-02T20:32:12;100612.47;;;8.80;100.00
15419;BME280;7808;43.712;23.098;2024-03-02T20:34:39;100610.97;;;8.74;100.00
15419;BME280;7808;43.712;23.098;2024-03-02T20:37:07;100620.69;;;8.75;100.00
15419;BME280;7808;43.712;23.098;2024-03-02T20:39:33;100619.31;;;8.64;100.00
15419;BME280;7808;43.712;23.098;2024-03-02T20:42:00;100622.13;;;8.58;100.00
15419;BME280;7808;43.712;23.098;2024-03-02T20:44:26;100619.75;;;8.57;100.00
15419;BME280;7808;43.712;23.098;2024-03-02T20:46:53;100614.53;;;8.61;100.00
15419;BME280;7808;43.712;23.098;2024-03-02T20:49:19;100608.50;;;8.64;100.00
15419;BME280;7808;43.712;23.098;2024-03-02T20:51:46;100617.41;;;8.64;100.00
15419;BME280;7808;43.712;23.098;2024-03-02T20:54:14;100612.31;;;8.63;100.00
15419;BME280;7808;43.712;23.098;2024-03-02T20:56:40;100615.63;;;8.59;100.00
15419;BME280;7808;43.712;23.098;2024-03-02T20:59:07;100624.53;;;8.60;100.00
15419;BME280;7808;43.712;23.098;2024-03-02T21:01:34;100623.16;;;8.49;100.00
15419;BME280;7808;43.712;23.098;2024-03-02T21:04:00;100633.56;;;8.55;100.00
15419;BME280;7808;43.712;23.098;2024-03-02T21:06:27;100629.59;;;8.39;100.00
15419;BME280;7808;43.712;23.098;2024-03-02T21:08:54;100629.69;;;8.34;100.00
15419;BME280;7808;43.712;23.098;2024-03-02T21:11:22;100638.44;;;8.31;100.00
15419;BME280;7808;43.712;23.098;2024-03-02T21:13:48;100635.84;;;8.26;100.00
15419;BME280;7808;43.712;23.098;2024-03-02T21:16:15;100631.22;;;8.27;100.00
15419;BME280;7808;43.712;23.098;2024-03-02T21:18:42;100633.31;;;8.30;100.00
15419;BME280;7808;43.712;23.098;2024-03-02T21:21:08;100639.19;;;8.32;100.00
15419;BME280;7808;43.712;23.098;2024-03-02T21:23:36;100625.03;;;8.26;100.00
15419;BME280;7808;43.712;23.098;2024-03-02T21:26:03;100627.97;;;8.25;100.00
15419;BME280;7808;43.712;23.098;2024-03-02T21:28:31;100624.47;;;8.24;100.00
15419;BME280;7808;43.712;23.098;2024-03-02T21:30:57;100625.59;;;8.23;100.00
15419;BME280;7808;43.712;23.098;2024-03-02T21:33:25;100622.69;;;8.20;100.00
15419;BME280;7808;43.712;23.098;2024-03-02T21:35:52;100627.81;;;8.21;100.00
15419;BME280;7808;43.712;23.098;2024-03-02T21:38:19;100633.38;;;8.25;100.00
15419;BME280;7808;43.712;23.098;2024-03-02T21:40:45;100626.19;;;8.20;100.00
15419;BME280;7808;43.712;23.098;2024-03-02T21:43:13;100628.91;;;8.20;100.00
15419;BME280;7808;43.712;23.098;2024-03-02T21:45:41;100624.00;;;8.22;100.00
15419;BME280;7808;43.712;23.098;2024-03-02T21:48:08;100623.91;;;8.27;100.00
15419;BME280;7808;43.712;23.098;2024-03-02T21:50:35;100633.03;;;8.31;100.00
15419;BME280;7808;43.712;23.098;2024-03-02T21:53:01;100634.28;;;8.34;100.00
15419;BME280;7808;43.712;23.098;2024-03-02T21:55:28;100641.72;;;8.28;100.00
15419;BME280;7808;43.712;23.098;2024-03-02T21:57:55;100641.41;;;8.30;100.00
15419;BME280;7808;43.712;23.098;2024-03-02T22:00:21;100640.13;;;8.27;100.00
15419;BME280;7808;43.712;23.098;2024-03-02T22:02:50;100641.72;;;8.28;100.00
15419;BME280;7808;43.712;23.098;2024-03-02T22:05:17;100645.91;;;8.34;100.00
15419;BME280;7808;43.712;23.098;2024-03-02T22:07:43;100646.22;;;8.33;100.00
15419;BME280;7808;43.712;23.098;2024-03-02T22:10:10;100649.81;;;8.28;100.00
15419;BME280;7808;43.712;23.098;2024-03-02T22:12:36;100644.59;;;8.32;100.00
15419;BME280;7808;43.712;23.098;2024-03-02T22:15:03;100648.41;;;8.31;100.00
15419;BME280;7808;43.712;23.098;2024-03-02T22:17:30;100653.19;;;8.34;100.00
15419;BME280;7808;43.712;23.098;2024-03-02T22:19:58;100652.41;;;8.33;100.00
15419;BME280;7808;43.712;23.098;2024-03-02T22:22:24;100654.00;;;8.48;100.00
15419;BME280;7808;43.712;23.098;2024-03-02T22:24:51;100648.97;;;8.55;100.00
15419;BME280;7808;43.712;23.098;2024-03-02T22:27:17;100654.53;;;8.58;100.00
15419;BME280;7808;43.712;23.098;2024-03-02T22:29:44;100660.69;;;8.50;100.00
15419;BME280;7808;43.712;23.098;2024-03-02T22:32:10;100653.34;;;8.51;100.00
15419;BME280;7808;43.712;23.098;2024-03-02T22:34:37;100653.06;;;8.52;100.00
15419;BME280;7808;43.712;23.098;2024-03-02T22:37:05;100647.78;;;8.47;100.00
15419;BME280;7808;43.712;23.098;2024-03-02T22:39:31;100648.38;;;8.44;100.00
15419;BME280;7808;43.712;23.098;2024-03-02T22:41:58;100643.28;;;8.43;100.00
15419;BME280;7808;43.712;23.098;2024-03-02T22:44:24;100648.38;;;8.44;100.00
15419;BME280;7808;43.712;23.098;2024-03-02T22:46:51;100645.19;;;8.42;100.00
15419;BME280;7808;43.712;23.098;2024-03-02T22:49:19;100643.47;;;8.46;100.00
15419;BME280;7808;43.712;23.098;2024-03-02T22:51:46;100641.41;;;8.43;100.00
15419;BME280;7808;43.712;23.098;2024-03-02T22:54:14;100637.69;;;8.39;100.00
15419;BME280;7808;43.712;23.098;2024-03-02T22:56:40;100643.69;;;8.36;100.00
15419;BME280;7808;43.712;23.098;2024-03-02T22:59:09;100634.28;;;8.34;100.00
15419;BME280;7808;43.712;23.098;2024-03-02T23:01:35;100638.44;;;8.31;100.00
15419;BME280;7808;43.712;23.098;2024-03-02T23:04:02;100634.59;;;8.32;100.00
15419;BME280;7808;43.712;23.098;2024-03-02T23:06:28;100639.41;;;8.35;100.00
15419;BME280;7808;43.712;23.098;2024-03-02T23:08:55;100634.00;;;8.35;100.00
15419;BME280;7808;43.712;23.098;2024-03-02T23:11:23;100629.19;;;8.32;100.00
15419;BME280;7808;43.712;23.098;2024-03-02T23:13:49;100627.00;;;8.34;100.00
15419;BME280;7808;43.712;23.098;2024-03-02T23:16:16;100626.19;;;8.34;100.00
15419;BME280;7808;43.712;23.098;2024-03-02T23:18:42;100636.81;;;8.30;100.00
15419;BME280;7808;43.712;23.098;2024-03-02T23:21:09;100636.88;;;8.39;100.00
15419;BME280;7808;43.712;23.098;2024-03-02T23:23:36;100628.59;;;8.35;100.00
15419;BME280;7808;43.712;23.098;2024-03-02T23:26:03;100641.00;;;8.36;100.00
15419;BME280;7808;43.712;23.098;2024-03-02T23:28:31;100641.13;;;8.31;100.00
15419;BME280;7808;43.712;23.098;2024-03-02T23:30:58;100639.03;;;8.28;100.00
15419;BME280;7808;43.712;23.098;2024-03-02T23:33:24;100632.22;;;8.31;100.00
15419;BME280;7808;43.712;23.098;2024-03-02T23:35:51;100632.69;;;8.19;100.00
15419;BME280;7808;43.712;23.098;2024-03-02T23:38:18;100646.91;;;8.11;100.00
15419;BME280;7808;43.712;23.098;2024-03-02T23:40:43;100643.19;;;8.07;100.00
15419;BME280;7808;43.712;23.098;2024-03-02T23:43:34;100653.00;;;8.03;100.00
15419;BME280;7808;43.712;23.098;2024-03-02T23:46:00;100644.09;;;8.03;100.00
15419;BME280;7808;43.712;23.098;2024-03-02T23:48:26;100644.41;;;8.01;100.00
15419;BME280;7808;43.712;23.098;2024-03-02T23:50:53;100643.63;;;8.01;100.00
15419;BME280;7808;43.712;23.098;2024-03-02T23:53:19;100643.44;;;7.97;100.00
15419;BME280;7808;43.712;23.098;2024-03-02T23:55:46;100648.31;;;7.95;100.00
15419;BME280;7808;43.712;23.098;2024-03-02T23:58:12;100646.13;;;7.97;100.00
